Time;durP1;ratioP1;P1;durP2;ratioP2;P2;SDS_P1;SDS_P2;PMS_P1;PMS_P2;Temp;Humidity;BMP_temperature;BMP_pressure;BME280_temperature;BME280_humidity;BME280_pressure;Samples;Min_cycle;Max_cycle;Signal;HPM_P1;HPM_P2
2023/01/25 00:00:26;;;;;;;15.35;6.85;;;;;;;1.11;100.00;98905.31;4979294;28;20035;-81
2023/01/25 00:02:51;;;;;;;15.82;6.82;;;;;;;1.09;100.00;98912.34;5003305;28;20036;-81
2023/01/25 00:05:17;;;;;;;18.88;6.95;;;;;;;0.89;100.00;98895.72;5007221;28;20086;-81
2023/01/25 00:07:43;;;;;;;16.80;7.32;;;;;;;0.90;100.00;98921.16;4994858;28;20119;-80
2023/01/25 00:10:09;;;;;;;23.02;7.40;;;;;;;0.90;100.00;98924.69;5008403;28;20037;-81
2023/01/25 00:12:34;;;;;;;16.63;6.80;;;;;;;0.91;100.00;98926.44;5002377;28;20499;-80
2023/01/25 00:15:04;;;;;;;14.93;7.22;;;;;;;0.95;100.00;98935.22;4980048;28;20062;-82
2023/01/25 00:17:30;;;;;;;16.27;7.80;;;;;;;0.83;100.00;98915.03;4969262;28;20111;-81
2023/01/25 00:19:55;;;;;;;19.98;7.35;;;;;;;0.84;100.00;98916.78;4998975;28;20026;-81
2023/01/25 00:22:21;;;;;;;17.90;6.93;;;;;;;0.84;100.00;98921.19;4995949;28;20041;-82
2023/01/25 00:25:08;;;;;;;23.20;8.00;;;;;;;0.74;100.00;98911.56;5003362;28;20034;-82
2023/01/25 00:27:34;;;;;;;18.77;7.15;;;;;;;0.77;100.00;98893.13;5001505;28;20021;-82
2023/01/25 00:29:59;;;;;;;14.68;6.45;;;;;;;0.93;100.00;98915.91;4994751;28;20516;-80
2023/01/25 00:32:36;;;;;;;19.90;7.40;;;;;;;1.08;100.00;98929.91;4985596;28;20056;-82
2023/01/25 00:35:02;;;;;;;17.35;6.82;;;;;;;1.05;100.00;98922.03;4976689;28;20547;-81
2023/01/25 00:37:39;;;;;;;20.27;6.43;;;;;;;1.14;100.00;98926.38;5008117;28;20029;-81
2023/01/25 00:40:05;;;;;;;14.20;6.80;;;;;;;1.06;100.00;98907.97;4990824;28;20033;-82
2023/01/25 00:42:31;;;;;;;14.57;6.72;;;;;;;1.15;100.00;98920.25;4996991;28;20025;-81
2023/01/25 00:44:56;;;;;;;18.17;7.00;;;;;;;0.94;100.00;98901.84;4997231;28;20033;-81
2023/01/25 00:47:22;;;;;;;20.77;7.53;;;;;;;0.74;100.00;98885.22;5016821;28;20028;-82
2023/01/25 00:49:48;;;;;;;15.40;6.35;;;;;;;0.77;100.00;98903.66;5029924;28;20025;-82
2023/01/25 00:52:14;;;;;;;18.23;7.25;;;;;;;0.77;100.00;98903.66;5009767;28;20041;-82
2023/01/25 00:54:40;;;;;;;16.38;7.13;;;;;;;0.75;100.00;98905.38;5000171;28;20113;-81
2023/01/25 00:57:07;;;;;;;18.20;7.18;;;;;;;0.72;100.00;98906.28;5000058;28;20111;-82
2023/01/25 00:59:33;;;;;;;18.63;8.35;;;;;;;0.90;100.00;98921.16;5016859;28;20032;-81
2023/01/25 01:01:59;;;;;;;15.02;7.18;;;;;;;0.85;100.00;98917.69;5016450;28;20345;-81
2023/01/25 01:04:25;;;;;;;16.90;6.95;;;;;;;0.76;100.00;98907.16;5017127;28;20109;-82
2023/01/25 01:06:52;;;;;;;19.30;7.20;;;;;;;0.90;100.00;98921.16;5000000;28;20061;-81
2023/01/25 01:09:18;;;;;;;15.30;6.78;;;;;;;0.76;100.00;98920.31;5016796;28;20048;-80
2023/01/25 01:11:44;;;;;;;12.05;6.03;;;;;;;0.68;100.00;98908.94;5016555;28;20032;-81
2023/01/25 01:14:10;;;;;;;15.98;5.93;;;;;;;0.78;100.00;98937.88;5016583;28;20033;-81
2023/01/25 01:16:36;;;;;;;13.95;5.90;;;;;;;0.76;100.00;98933.50;5000127;28;20346;-80
2023/01/25 01:19:01;;;;;;;19.42;6.45;;;;;;;0.74;100.00;98930.84;4999898;28;20021;-80
2023/01/25 01:21:27;;;;;;;16.50;6.50;;;;;;;0.71;100.00;98915.03;5016410;28;20025;-81
2023/01/25 01:23:53;;;;;;;18.15;6.95;;;;;;;0.77;100.00;98908.94;5034105;28;20025;-80
2023/01/25 01:26:19;;;;;;;12.40;6.38;;;;;;;0.80;100.00;98911.56;5016375;28;20481;-81
2023/01/25 01:28:48;;;;;;;17.40;6.90;;;;;;;0.76;100.00;98910.66;5016301;28;20413;-80
2023/01/25 01:31:16;;;;;;;15.45;6.63;;;;;;;0.75;100.00;98890.47;5016432;28;20045;-80
2023/01/25 01:33:42;;;;;;;16.80;6.55;;;;;;;0.76;100.00;98886.09;4999921;28;20211;-81
2023/01/25 01:36:07;;;;;;;11.63;6.18;;;;;;;0.93;100.00;98922.03;5015832;28;20116;-81
2023/01/25 01:38:33;;;;;;;12.70;5.78;;;;;;;0.69;100.00;98879.97;5016623;28;20025;-81
2023/01/25 01:40:58;;;;;;;14.80;6.53;;;;;;;0.77;100.00;98904.50;5016257;28;20113;-82
2023/01/25 01:43:24;;;;;;;18.65;7.50;;;;;;;0.86;100.00;98911.53;5017082;28;20548;-80
2023/01/25 01:45:55;;;;;;;15.55;6.72;;;;;;;0.65;100.00;98898.41;5016121;28;20030;-81
2023/01/25 01:48:37;;;;;;;20.10;7.80;;;;;;;0.80;100.00;98909.75;4999529;28;20033;-81
2023/01/25 01:51:15;;;;;;;16.60;6.47;;;;;;;0.75;100.00;98915.94;5015687;28;20044;-80
2023/01/25 01:53:44;;;;;;;12.68;6.35;;;;;;;0.86;100.00;98922.06;5009058;28;20081;-81
2023/01/25 01:56:13;;;;;;;16.20;6.63;;;;;;;0.68;100.00;98904.53;5006905;28;20022;-80
2023/01/25 01:58:40;;;;;;;17.17;6.55;;;;;;;0.50;100.00;98897.53;5010342;28;20026;-81
2023/01/25 02:01:05;;;;;;;17.58;6.15;;;;;;;0.49;100.00;98902.81;5012357;28;20033;-81
2023/01/25 02:03:31;;;;;;;17.38;6.70;;;;;;;0.57;100.00;98916.81;5012185;28;20089;-81
2023/01/25 02:06:13;;;;;;;19.90;7.03;;;;;;;0.67;100.00;98929.13;4979559;28;20400;-81
2023/01/25 02:08:39;;;;;;;17.13;6.80;;;;;;;0.75;100.00;98944.88;4986020;28;20033;-81
2023/01/25 02:11:06;;;;;;;14.63;5.95;;;;;;;0.77;100.00;98935.25;5015351;28;20484;-82
2023/01/25 02:13:32;;;;;;;14.93;6.47;;;;;;;0.77;100.00;98941.38;4998830;28;20037;-81
2023/01/25 02:15:58;;;;;;;17.05;6.72;;;;;;;0.74;100.00;98930.00;4999674;28;20421;-81
2023/01/25 02:18:24;;;;;;;20.42;7.43;;;;;;;0.63;100.00;98919.44;5013303;28;20096;-81
2023/01/25 02:20:51;;;;;;;14.35;6.93;;;;;;;0.63;100.00;98929.09;4986249;28;20124;-81
2023/01/25 02:23:34;;;;;;;17.98;6.93;;;;;;;0.50;100.00;98917.69;5002918;28;20037;-80
2023/01/25 02:26:01;;;;;;;13.77;6.55;;;;;;;0.55;100.00;98935.25;5028997;28;20040;-82
2023/01/25 02:28:31;;;;;;;15.70;6.95;;;;;;;0.50;100.00;98931.75;5005362;28;20428;-81
2023/01/25 02:30:56;;;;;;;18.92;7.32;;;;;;;0.52;100.00;98922.06;4995722;28;20061;-81
2023/01/25 02:33:23;;;;;;;18.10;7.15;;;;;;;0.71;100.00;98940.53;5020394;28;20061;-81
2023/01/25 02:35:55;;;;;;;15.15;6.82;;;;;;;0.61;100.00;98926.50;4992207;28;20084;-81
2023/01/25 02:38:20;;;;;;;14.00;6.40;;;;;;;0.44;100.00;98918.56;5032784;28;20029;-80
2023/01/25 02:41:02;;;;;;;17.02;6.95;;;;;;;0.53;100.00;98929.09;5007779;28;20060;-81
2023/01/25 02:43:30;;;;;;;13.43;6.13;;;;;;;0.63;100.00;98932.63;5006521;28;20030;-80
2023/01/25 02:46:02;;;;;;;18.55;6.72;;;;;;;0.66;100.00;98942.25;5001943;28;20304;-82
2023/01/25 02:48:27;;;;;;;15.70;6.47;;;;;;;0.59;100.00;98929.97;4997732;28;20025;-81
2023/01/25 02:50:53;;;;;;;14.75;6.97;;;;;;;0.64;100.00;98930.88;5032354;28;20037;-81
2023/01/25 02:53:18;;;;;;;17.85;6.28;;;;;;;0.70;100.00;98934.38;5024011;28;20050;-82
2023/01/25 02:55:44;;;;;;;16.00;6.82;;;;;;;0.65;100.00;98924.72;4997426;28;20033;-81
2023/01/25 02:58:09;;;;;;;13.98;6.43;;;;;;;0.63;100.00;98927.34;5006733;28;20034;-81
2023/01/25 03:00:35;;;;;;;13.65;6.53;;;;;;;0.55;100.00;98931.75;4985034;28;20060;-81
2023/01/25 03:03:00;;;;;;;23.50;8.65;;;;;;;0.53;100.00;98926.47;5004549;28;20037;-82
2023/01/25 03:05:27;;;;;;;27.63;11.77;;;;;;;0.54;100.00;98930.00;4980149;28;20049;-81
2023/01/25 03:07:53;;;;;;;18.33;6.65;;;;;;;0.44;100.00;98925.59;5011636;28;20030;-82
2023/01/25 03:10:18;;;;;;;16.98;6.80;;;;;;;0.37;100.00;98924.72;4978211;28;20470;-81
2023/01/25 03:12:44;;;;;;;18.00;7.20;;;;;;;0.44;100.00;98930.84;5003972;28;20105;-80
2023/01/25 03:15:09;;;;;;;17.20;7.07;;;;;;;0.56;100.00;98925.59;5027371;28;20434;-81
2023/01/25 03:17:36;;;;;;;16.50;7.22;;;;;;;0.67;100.00;98930.88;4995221;28;20021;-80
2023/01/25 03:20:01;;;;;;;16.55;6.85;;;;;;;0.65;100.00;98922.94;5002473;28;20040;-80
2023/01/25 03:22:27;;;;;;;16.73;7.38;;;;;;;0.71;100.00;98916.81;5011170;28;20014;-80
2023/01/25 03:24:52;;;;;;;13.20;6.80;;;;;;;0.69;100.00;98902.78;5010441;28;20467;-80
2023/01/25 03:27:18;;;;;;;17.63;6.25;;;;;;;0.68;100.00;98908.94;4995553;28;20026;-81
2023/01/25 03:29:44;;;;;;;18.02;6.82;;;;;;;0.62;100.00;98903.66;4987270;28;20029;-82
2023/01/25 03:32:10;;;;;;;17.40;7.15;;;;;;;0.54;100.00;98898.41;4994847;28;20028;-80
2023/01/25 03:34:36;;;;;;;15.57;6.38;;;;;;;0.58;100.00;98904.53;4998035;28;20017;-80
2023/01/25 03:37:02;;;;;;;19.35;6.50;;;;;;;0.57;100.00;98905.41;5002861;28;20433;-80
2023/01/25 03:39:28;;;;;;;14.45;6.70;;;;;;;0.55;100.00;98908.06;5005804;28;20413;-81
2023/01/25 03:41:53;;;;;;;17.55;7.05;;;;;;;0.55;100.00;98906.28;5013607;28;20037;-80
2023/01/25 03:44:19;;;;;;;42.35;15.38;;;;;;;0.43;100.00;98911.56;5017110;28;20111;-80
2023/01/25 03:46:44;;;;;;;21.55;9.40;;;;;;;0.41;100.00;98908.06;4985941;28;20489;-80
2023/01/25 03:49:10;;;;;;;25.67;10.20;;;;;;;0.40;100.00;98911.56;4985755;28;20029;-81
2023/01/25 03:51:36;;;;;;;21.05;7.53;;;;;;;0.49;100.00;98915.97;5000936;28;20060;-80
2023/01/25 03:54:03;;;;;;;18.58;7.80;;;;;;;0.55;100.00;98919.44;4997079;28;20444;-81
2023/01/25 03:56:28;;;;;;;20.73;7.88;;;;;;;0.35;100.00;98908.06;4997137;28;20093;-80
2023/01/25 03:58:54;;;;;;;14.20;6.63;;;;;;;0.45;100.00;98916.84;4997367;28;20041;-81
2023/01/25 04:01:19;;;;;;;18.77;8.82;;;;;;;0.58;100.00;98922.97;4997193;28;20036;-80
2023/01/25 04:03:45;;;;;;;14.20;7.05;;;;;;;0.65;100.00;98928.22;4997041;28;20057;-80
2023/01/25 04:06:11;;;;;;;17.17;7.15;;;;;;;0.72;100.00;98926.47;4997044;28;20025;-81
2023/01/25 04:08:36;;;;;;;17.00;7.22;;;;;;;0.68;100.00;98911.56;4997514;28;20528;-81
2023/01/25 04:11:08;;;;;;;16.73;7.18;;;;;;;0.75;100.00;98916.81;5032000;28;20477;-80
2023/01/25 04:13:35;;;;;;;16.10;7.60;;;;;;;0.76;100.00;98918.56;5013861;28;20088;-81
2023/01/25 04:16:02;;;;;;;16.92;7.15;;;;;;;0.60;100.00;98890.50;5014476;28;20099;-81
2023/01/25 04:18:27;;;;;;;20.65;8.38;;;;;;;0.59;100.00;98887.84;5017701;28;20473;-82
2023/01/25 04:20:54;;;;;;;18.80;7.90;;;;;;;0.63;100.00;98895.75;5036192;28;20072;-81
2023/01/25 04:23:20;;;;;;;16.73;7.80;;;;;;;0.72;100.00;98910.66;5018131;28;20117;-80
2023/01/25 04:25:53;;;;;;;19.45;6.85;;;;;;;0.59;100.00;98894.00;5017744;28;20112;-81
2023/01/25 04:28:19;;;;;;;13.52;6.50;;;;;;;0.49;100.00;98889.66;5035255;28;20036;-81
2023/01/25 04:30:45;;;;;;;13.45;6.47;;;;;;;0.55;100.00;98898.38;5017513;28;20029;-80
2023/01/25 04:33:10;;;;;;;20.70;8.45;;;;;;;0.53;100.00;98900.16;5018064;28;20037;-80
2023/01/25 04:35:37;;;;;;;16.33;6.28;;;;;;;0.55;100.00;98908.91;5017564;28;20033;-80
2023/01/25 04:38:03;;;;;;;16.98;7.38;;;;;;;0.46;100.00;98898.41;5001609;28;20492;-82
2023/01/25 04:40:29;;;;;;;19.63;7.45;;;;;;;0.62;100.00;98908.91;5017617;28;20460;-81
2023/01/25 04:42:54;;;;;;;14.50;7.03;;;;;;;0.58;100.00;98913.31;5017115;28;20060;-82
2023/01/25 04:45:20;;;;;;;13.52;6.53;;;;;;;0.64;100.00;98917.69;5000519;28;20056;-81
2023/01/25 04:47:46;;;;;;;25.20;9.10;;;;;;;0.70;100.00;98912.44;5017213;28;20029;-81
2023/01/25 04:50:11;;;;;;;17.27;7.55;;;;;;;0.72;100.00;98901.00;5016691;28;20095;-81
2023/01/25 04:52:37;;;;;;;16.42;7.43;;;;;;;0.79;100.00;98907.16;5018336;28;20072;-81
2023/01/25 04:55:03;;;;;;;15.38;7.22;;;;;;;0.66;100.00;98894.88;5018324;28;20543;-81
2023/01/25 04:57:28;;;;;;;19.50;7.30;;;;;;;0.63;100.00;98903.66;5001666;28;20029;-81
2023/01/25 04:59:54;;;;;;;19.80;7.93;;;;;;;0.67;100.00;98886.09;5002476;28;20091;-81
2023/01/25 05:02:19;;;;;;;18.52;7.80;;;;;;;0.81;100.00;98905.38;5001347;28;20092;-82
2023/01/25 05:04:45;;;;;;;14.30;6.50;;;;;;;0.91;100.00;98918.53;5036799;28;20481;-81
2023/01/25 05:07:10;;;;;;;18.42;7.50;;;;;;;0.93;100.00;98910.63;5017970;28;20025;-80
2023/01/25 05:09:36;;;;;;;17.55;7.65;;;;;;;0.88;100.00;98896.59;5035773;28;20021;-81
2023/01/25 05:12:01;;;;;;;19.70;7.63;;;;;;;0.89;100.00;98888.69;5016255;28;20113;-81
2023/01/25 05:14:27;;;;;;;20.85;8.35;;;;;;;0.91;100.00;98886.94;5016289;28;20481;-82
2023/01/25 05:16:52;;;;;;;20.45;8.18;;;;;;;0.92;100.00;98893.09;5016909;28;20404;-81
2023/01/25 05:19:18;;;;;;;19.90;7.68;;;;;;;0.77;100.00;98883.44;5000218;28;20490;-81
2023/01/25 05:21:59;;;;;;;20.10;8.25;;;;;;;0.79;100.00;98878.19;5016264;28;20120;-82
2023/01/25 05:24:35;;;;;;;22.45;8.30;;;;;;;0.82;100.00;98875.53;5018368;28;20032;-80
2023/01/25 05:27:04;;;;;;;23.25;9.55;;;;;;;0.76;100.00;98865.91;5033807;28;20028;-81
2023/01/25 05:29:37;;;;;;;18.70;7.95;;;;;;;0.77;100.00;98895.75;5016774;28;20084;-82
2023/01/25 05:32:14;;;;;;;22.55;9.63;;;;;;;0.72;100.00;98897.50;5018987;28;20477;-81
2023/01/25 05:34:40;;;;;;;21.95;8.93;;;;;;;0.61;100.00;98892.25;5017748;28;20021;-82
2023/01/25 05:37:07;;;;;;;24.95;10.57;;;;;;;0.55;100.00;98887.00;5017714;28;20025;-80
2023/01/25 05:39:33;;;;;;;29.42;11.88;;;;;;;0.62;100.00;98903.66;5015966;28;20021;-78
2023/01/25 05:41:58;;;;;;;31.67;12.90;;;;;;;0.66;100.00;98900.13;4999962;28;20037;-82
2023/01/25 05:44:24;;;;;;;29.58;12.65;;;;;;;0.65;100.00;98909.78;5016023;28;20056;-83
2023/01/25 05:46:50;;;;;;;34.35;13.93;;;;;;;0.72;100.00;98921.19;5015885;28;20025;-82
2023/01/25 05:49:17;;;;;;;47.13;18.55;;;;;;;0.75;100.00;98926.47;5015855;28;20099;-81
2023/01/25 05:51:42;;;;;;;103.15;42.72;;;;;;;0.79;100.00;98923.84;5015809;28;20035;-81
2023/01/25 05:54:11;;;;;;;27.75;11.68;;;;;;;0.81;100.00;98921.19;4999098;28;20033;-82
2023/01/25 05:56:37;;;;;;;36.72;15.80;;;;;;;0.74;100.00;98919.47;5015775;28;20029;-82
2023/01/25 05:59:03;;;;;;;36.00;16.40;;;;;;;0.74;100.00;98919.47;5033336;28;20107;-81
2023/01/25 06:01:29;;;;;;;45.30;18.27;;;;;;;0.86;100.00;98922.94;5015720;28;20079;-81
2023/01/25 06:03:55;;;;;;;29.15;12.35;;;;;;;0.71;100.00;98914.19;5016025;28;20029;-82
2023/01/25 06:06:20;;;;;;;25.30;10.85;;;;;;;0.62;100.00;98906.28;5015892;28;20030;-83
2023/01/25 06:08:46;;;;;;;20.35;8.43;;;;;;;0.66;100.00;98913.31;4998919;28;20116;-83
2023/01/25 06:11:14;;;;;;;27.73;10.25;;;;;;;0.66;100.00;98918.56;5033184;28;20036;-84
2023/01/25 06:13:40;;;;;;;29.65;11.00;;;;;;;0.83;100.00;98935.25;4998568;28;20112;-82
2023/01/25 06:16:06;;;;;;;40.20;16.08;;;;;;;0.78;100.00;98926.44;4999108;28;20092;-83
2023/01/25 06:18:33;;;;;;;25.63;10.55;;;;;;;0.90;100.00;98936.97;5015221;28;20029;-84
2023/01/25 06:20:59;;;;;;;23.33;10.15;;;;;;;0.82;100.00;98934.38;5002407;28;20103;-85
2023/01/25 06:23:24;;;;;;;44.80;20.23;;;;;;;0.79;100.00;98925.59;5015025;28;20094;-84
2023/01/25 06:25:50;;;;;;;28.88;11.73;;;;;;;0.87;100.00;98921.16;4998558;28;20021;-83
2023/01/25 06:28:16;;;;;;;23.75;10.20;;;;;;;0.97;100.00;98930.81;4999227;28;20111;-84
2023/01/25 06:30:41;;;;;;;24.48;11.13;;;;;;;0.77;100.00;98901.88;5015642;28;20037;-84
2023/01/25 06:33:07;;;;;;;40.50;20.17;;;;;;;0.75;100.00;98902.75;4999088;28;20028;-82
2023/01/25 06:35:33;;;;;;;55.60;24.83;;;;;;;0.73;100.00;98907.16;4998703;28;20025;-83
2023/01/25 06:37:59;;;;;;;26.98;11.77;;;;;;;0.71;100.00;98898.41;5015324;28;20048;-81
2023/01/25 06:40:26;;;;;;;19.52;8.98;;;;;;;0.75;100.00;98915.94;5015101;28;20040;-82
2023/01/25 06:42:52;;;;;;;22.83;10.75;;;;;;;0.81;100.00;98922.06;5014494;28;20120;-82
2023/01/25 06:45:18;;;;;;;20.13;8.45;;;;;;;0.89;100.00;98922.91;4998363;28;20114;-83
2023/01/25 06:47:45;;;;;;;23.75;9.43;;;;;;;0.93;100.00;98919.41;5014815;28;20044;-83
2023/01/25 06:50:11;;;;;;;19.77;9.05;;;;;;;0.99;100.00;98916.75;4999029;28;20033;-83
2023/01/25 06:52:37;;;;;;;21.27;9.00;;;;;;;1.07;100.00;98906.22;5012104;28;20103;-82
2023/01/25 06:55:05;;;;;;;20.58;8.80;;;;;;;1.07;100.00;98898.31;5014587;28;20468;-82
2023/01/25 06:57:31;;;;;;;23.63;10.65;;;;;;;1.03;100.00;98888.66;5015113;28;20041;-84
2023/01/25 06:59:56;;;;;;;22.65;8.63;;;;;;;0.99;100.00;98879.00;4998043;28;20111;-84
2023/01/25 07:02:22;;;;;;;49.95;22.77;;;;;;;1.07;100.00;98874.63;5015097;28;20493;-84
2023/01/25 07:04:47;;;;;;;27.05;11.20;;;;;;;1.17;100.00;98880.72;5015244;28;20083;-82
2023/01/25 07:07:13;;;;;;;16.90;7.95;;;;;;;1.03;100.00;98878.13;4997988;28;20025;-85
2023/01/25 07:10:07;;;;;;;20.52;9.95;;;;;;;1.06;100.00;98872.84;5015566;28;20029;-82
2023/01/25 07:12:32;;;;;;;28.05;12.60;;;;;;;0.83;100.00;98835.19;5007132;28;20045;-85
2023/01/25 07:14:58;;;;;;;27.25;12.85;;;;;;;1.07;100.00;98871.97;5014204;28;20064;-85
2023/01/25 07:17:23;;;;;;;33.80;13.48;;;;;;;1.25;100.00;98884.19;5003652;28;20096;-84
2023/01/25 07:19:49;;;;;;;25.85;8.38;;;;;;;1.33;100.00;98885.91;5014855;28;20032;-83
2023/01/25 07:22:14;;;;;;;20.70;8.10;;;;;;;1.32;100.00;98870.13;4998411;28;20251;-85
2023/01/25 07:24:40;;;;;;;25.67;11.60;;;;;;;1.13;100.00;98858.78;4998533;28;20382;-72
2023/01/25 07:27:06;;;;;;;25.90;11.43;;;;;;;1.07;100.00;98864.06;5015645;28;20029;-84
2023/01/25 07:29:31;;;;;;;18.83;8.57;;;;;;;1.20;100.00;98868.38;5015422;28;20032;-73
2023/01/25 07:31:57;;;;;;;22.67;9.52;;;;;;;1.15;100.00;98842.94;4997821;28;20087;-73
2023/01/25 07:34:22;;;;;;;19.83;9.20;;;;;;;1.35;100.00;98878.03;5013851;28;20057;-73
2023/01/25 07:36:48;;;;;;;34.22;9.80;;;;;;;1.34;100.00;98871.00;5031754;28;20036;-75
2023/01/25 07:39:13;;;;;;;25.08;9.90;;;;;;;1.43;100.00;98866.56;5014745;28;20485;-74
2023/01/25 07:41:39;;;;;;;19.83;8.52;;;;;;;1.44;100.00;98864.81;5032092;28;20029;-73
2023/01/25 07:44:05;;;;;;;33.22;12.45;;;;;;;1.46;100.00;98853.34;5014312;28;20108;-74
2023/01/25 07:46:31;;;;;;;24.15;10.13;;;;;;;1.45;100.00;98848.97;5014000;28;20518;-83
2023/01/25 07:48:59;;;;;;;18.77;9.05;;;;;;;1.47;100.00;98834.03;4997724;28;20510;-83
2023/01/25 07:51:29;;;;;;;21.63;9.50;;;;;;;1.32;100.00;98836.75;4997058;28;20477;-86
2023/01/25 07:53:58;;;;;;;32.15;10.48;;;;;;;1.45;100.00;98837.53;5000359;28;20424;-82
2023/01/25 07:56:26;;;;;;;13.75;6.30;;;;;;;1.30;100.00;98827.94;5021088;28;20042;-81
2023/01/25 07:58:55;;;;;;;25.10;10.77;;;;;;;1.41;100.00;98823.53;4997824;28;20488;-77
2023/01/25 08:01:23;;;;;;;18.48;8.95;;;;;;;1.38;100.00;98820.91;5019240;28;20048;-81
2023/01/25 08:03:49;;;;;;;33.30;15.63;;;;;;;1.32;100.00;98818.31;5009320;28;20060;-82
2023/01/25 08:06:15;;;;;;;19.90;8.55;;;;;;;1.23;100.00;98820.94;5003269;28;20022;-82
2023/01/25 08:08:46;;;;;;;25.00;12.43;;;;;;;1.30;100.00;98832.34;5004043;28;20030;-84
2023/01/25 08:11:24;;;;;;;30.33;15.18;;;;;;;1.17;100.00;98820.13;5014188;28;20033;-83
2023/01/25 08:13:49;;;;;;;21.45;11.00;;;;;;;1.40;100.00;98840.22;5013681;28;20040;-84
2023/01/25 08:16:16;;;;;;;25.58;10.23;;;;;;;1.45;100.00;98841.06;5013499;28;20037;-86
2023/01/25 08:18:42;;;;;;;17.75;7.28;;;;;;;1.51;100.00;98841.00;5013571;28;20065;-83
2023/01/25 08:21:08;;;;;;;19.08;7.80;;;;;;;1.55;100.00;98829.59;5013317;28;20057;-83
2023/01/25 08:23:35;;;;;;;24.20;9.75;;;;;;;1.78;100.00;98831.22;5013420;28;20025;-83
2023/01/25 08:26:05;;;;;;;15.82;8.48;;;;;;;1.79;100.00;98831.19;4997326;28;20025;-85
2023/01/25 08:28:30;;;;;;;20.80;8.20;;;;;;;1.75;100.00;98820.69;5013333;28;20096;-85
2023/01/25 08:31:07;;;;;;;15.13;7.65;;;;;;;1.80;100.00;98829.44;5013892;28;20025;-81
2023/01/25 08:33:33;;;;;;;17.30;8.07;;;;;;;1.95;100.00;98831.94;5012997;28;20037;-85
2023/01/25 08:35:58;;;;;;;25.80;9.40;;;;;;;1.86;100.00;98827.63;5013367;28;20103;-83
2023/01/25 08:38:24;;;;;;;16.15;7.32;;;;;;;1.69;100.00;98812.81;4996650;28;20033;-83
2023/01/25 08:40:50;;;;;;;17.55;7.72;;;;;;;1.84;100.00;98831.16;5031261;28;20029;-85
2023/01/25 08:43:15;;;;;;;14.68;6.95;;;;;;;1.99;100.00;98837.22;5013416;28;20091;-85
2023/01/25 08:45:41;;;;;;;17.60;8.20;;;;;;;1.88;100.00;98823.22;4996601;28;20033;-86
2023/01/25 08:48:06;;;;;;;19.92;9.13;;;;;;;1.77;100.00;98818.91;4997665;28;20496;-83
2023/01/25 08:50:32;;;;;;;15.35;7.75;;;;;;;1.86;100.00;98818.84;5013431;28;20034;-81
2023/01/25 08:52:57;;;;;;;16.77;6.88;;;;;;;1.94;100.00;98817.88;5013029;28;20049;-80
2023/01/25 08:55:23;;;;;;;20.63;8.85;;;;;;;2.08;100.00;98825.72;5030649;28;20034;-81
2023/01/25 08:57:48;;;;;;;16.77;7.68;;;;;;;2.07;100.00;98818.66;5010929;28;20080;-80
2023/01/25 09:00:14;;;;;;;16.27;7.57;;;;;;;2.12;100.00;98816.88;4993569;28;20088;-80
2023/01/25 09:02:40;;;;;;;19.90;8.35;;;;;;;2.12;100.00;98816.88;4997079;28;20096;-80
2023/01/25 09:05:06;;;;;;;16.05;6.72;;;;;;;2.27;100.00;98811.47;5013719;28;20030;-80
2023/01/25 09:07:36;;;;;;;17.35;6.75;;;;;;;2.26;100.00;98793.88;5016263;28;20033;-80
2023/01/25 09:10:02;;;;;;;17.88;8.70;;;;;;;2.18;100.00;98806.28;5034167;28;20036;-80
2023/01/25 09:12:28;;;;;;;16.88;8.43;;;;;;;1.87;100.00;98792.47;5016094;28;20021;-79
2023/01/25 09:14:53;;;;;;;15.02;7.68;;;;;;;1.94;100.00;98804.69;5035949;28;20025;-82
2023/01/25 09:17:19;;;;;;;16.63;7.63;;;;;;;1.58;100.00;98783.88;5000773;28;20444;-79
2023/01/25 09:19:46;;;;;;;17.17;7.82;;;;;;;1.60;100.00;98785.59;5016715;28;20408;-82
2023/01/25 09:22:12;;;;;;;18.95;9.23;;;;;;;1.85;100.00;98811.78;5019377;28;20037;-81
2023/01/25 09:24:37;;;;;;;15.20;7.63;;;;;;;1.67;100.00;98782.91;5000257;28;20467;-82
2023/01/25 09:27:03;;;;;;;18.38;9.60;;;;;;;1.67;100.00;98777.63;5015814;28;20030;-71
2023/01/25 09:29:28;;;;;;;17.70;9.75;;;;;;;1.79;100.00;98785.47;5013175;28;20505;-74
2023/01/25 09:31:54;;;;;;;15.68;7.88;;;;;;;1.70;100.00;98773.22;5016046;28;20025;-71
2023/01/25 09:34:21;;;;;;;22.77;11.65;;;;;;;1.93;100.00;98778.34;5033849;28;20079;-71
2023/01/25 09:36:46;;;;;;;44.00;18.67;;;;;;;2.01;100.00;98771.22;5033022;28;20022;-71
2023/01/25 09:39:12;;;;;;;22.30;9.57;;;;;;;2.17;100.00;98764.94;5026820;28;20402;-74
2023/01/25 09:41:56;;;;;;;24.80;11.88;;;;;;;2.31;100.00;98760.38;5013402;28;20045;-74
2023/01/25 09:44:45;;;;;;;19.83;7.72;;;;;;;2.18;100.00;98727.09;5010201;28;20021;-73
2023/01/25 09:47:28;;;;;;;16.73;9.25;;;;;;;2.24;100.00;98728.81;5012074;28;20436;-74
2023/01/25 09:50:13;;;;;;;15.27;8.65;;;;;;;2.16;100.00;98731.50;4996993;28;20037;-74
2023/01/25 09:53:06;;;;;;;18.20;9.20;;;;;;;2.23;100.00;98730.56;5010319;28;20056;-72
2023/01/25 09:55:32;;;;;;;31.20;11.00;;;;;;;2.25;100.00;98720.84;5030238;28;20091;-75
2023/01/25 09:57:59;;;;;;;22.02;10.30;;;;;;;2.33;100.00;98716.38;4996474;28;20037;-73
2023/01/25 10:00:33;;;;;;;17.95;8.32;;;;;;;2.17;100.00;98715.66;4996594;28;20022;-75
2023/01/25 10:03:25;;;;;;;18.80;8.43;;;;;;;2.05;100.00;98731.63;4993542;28;20029;-74
2023/01/25 10:05:57;;;;;;;14.73;6.53;;;;;;;2.13;100.00;98727.13;5012911;28;20147;-74
2023/01/25 10:08:34;;;;;;;15.38;8.63;;;;;;;2.13;100.00;98713.94;4993745;28;20460;-75
2023/01/25 10:11:07;;;;;;;28.15;11.75;;;;;;;2.18;100.00;98706.00;5012697;28;20532;-73
2023/01/25 10:13:32;;;;;;;39.85;16.65;;;;;;;2.16;100.00;98691.91;5011942;28;20029;-73
2023/01/25 10:16:02;;;;;;;32.55;14.25;;;;;;;2.18;100.00;98698.91;5009222;28;20034;-73
2023/01/25 10:18:38;;;;;;;25.17;12.70;;;;;;;2.06;100.00;98687.66;5010442;28;20025;-75
2023/01/25 10:21:11;;;;;;;15.18;6.22;;;;;;;2.04;100.00;98703.47;5009687;28;20125;-73
2023/01/25 10:23:55;;;;;;;11.18;6.07;;;;;;;2.11;100.00;98699.03;4995854;28;20025;-72
2023/01/25 10:26:32;;;;;;;15.32;6.82;;;;;;;2.09;100.00;98690.25;5030185;28;20053;-75
2023/01/25 10:29:28;;;;;;;13.18;6.53;;;;;;;1.91;100.00;98693.94;5005188;28;20025;-74
2023/01/25 10:32:01;;;;;;;14.23;6.80;;;;;;;1.99;100.00;98702.66;5007477;28;20049;-74
2023/01/25 10:34:32;;;;;;;14.02;6.15;;;;;;;1.99;100.00;98699.13;4996019;28;20029;-73
2023/01/25 10:37:01;;;;;;;19.08;7.43;;;;;;;2.11;100.00;98697.25;4995944;28;20453;-74
2023/01/25 10:39:28;;;;;;;23.20;10.63;;;;;;;2.23;100.00;98688.34;4995086;28;20456;-74
2023/01/25 10:42:00;;;;;;;23.05;9.48;;;;;;;2.21;100.00;98661.09;5008981;28;20034;-73
2023/01/25 10:44:27;;;;;;;14.10;7.40;;;;;;;2.37;100.00;98654.72;5011975;28;20025;-74
2023/01/25 10:46:53;;;;;;;26.40;11.95;;;;;;;2.40;100.00;98651.19;5012117;28;20104;-73
2023/01/25 10:49:43;;;;;;;19.30;9.27;;;;;;;2.47;100.00;98643.16;5029746;28;20112;-73
2023/01/25 10:52:18;;;;;;;23.05;9.77;;;;;;;2.44;100.00;98627.38;5008299;28;20084;-73
2023/01/25 10:54:44;;;;;;;23.40;10.25;;;;;;;2.48;100.00;98622.94;5008586;28;20048;-74
2023/01/25 10:57:21;;;;;;;18.33;9.20;;;;;;;2.58;100.00;98614.88;5008433;28;20041;-73
2023/01/25 10:59:51;;;;;;;17.20;8.00;;;;;;;2.54;100.00;98607.88;5010336;28;20559;-74
2023/01/25 11:02:34;;;;;;;19.42;8.35;;;;;;;2.57;100.00;98609.59;4995085;28;20037;-74
2023/01/25 11:05:24;;;;;;;22.17;10.25;;;;;;;2.49;100.00;98601.78;5011761;28;20036;-74
2023/01/25 11:07:50;;;;;;;12.00;6.40;;;;;;;2.47;100.00;98585.09;5022946;28;20497;-74
2023/01/25 11:10:36;;;;;;;20.50;7.95;;;;;;;2.58;100.00;98606.09;4995406;28;20095;-73
2023/01/25 11:13:18;;;;;;;18.73;7.22;;;;;;;2.47;100.00;98579.81;4990103;28;20872;-73
2023/01/25 11:15:53;;;;;;;12.27;6.05;;;;;;;2.51;100.00;98594.72;5008678;28;20381;-74
2023/01/25 11:18:28;;;;;;;18.73;7.05;;;;;;;2.48;100.00;98578.03;5011381;28;20068;-73
2023/01/25 11:21:17;;;;;;;25.15;8.40;;;;;;;2.55;100.00;98583.19;5010305;28;20038;-74
2023/01/25 11:23:45;;;;;;;28.98;13.60;;;;;;;2.55;100.00;98583.19;4995500;28;20052;-74
2023/01/25 11:26:16;;;;;;;21.75;9.30;;;;;;;2.52;100.00;98580.59;5010499;28;20033;-74
2023/01/25 11:28:49;;;;;;;15.10;7.53;;;;;;;2.52;100.00;98580.59;4994934;28;20102;-73